sensor_id;sensor_type;location;lat;lon;timestamp;P1;durP1;ratioP1;P2;durP2;ratioP2
55732;SDS011;41637;52.364;9.910;2022-12-07T00:01:30;22.50;;;15.00;;
55732;SDS011;41637;52.364;9.910;2022-12-07T00:03:59;23.90;;;15.50;;
55732;SDS011;41637;52.364;9.910;2022-12-07T00:06:32;21.90;;;14.40;;
55732;SDS011;41637;52.364;9.910;2022-12-07T00:09:00;22.60;;;14.90;;
55732;SDS011;41637;52.364;9.910;2022-12-07T00:11:27;23.20;;;16.10;;
55732;SDS011;41637;52.364;9.910;2022-12-07T00:13:55;21.90;;;14.60;;
55732;SDS011;41637;52.364;9.910;2022-12-07T00:16:24;23.10;;;15.70;;
55732;SDS011;41637;52.364;9.910;2022-12-07T00:18:55;23.70;;;15.20;;
55732;SDS011;41637;52.364;9.910;2022-12-07T00:21:26;23.70;;;15.80;;
55732;SDS011;41637;52.364;9.910;2022-12-07T00:23:55;24.00;;;16.30;;
55732;SDS011;41637;52.364;9.910;2022-12-07T00:26:24;24.30;;;16.60;;
55732;SDS011;41637;52.364;9.910;2022-12-07T00:28:54;25.50;;;15.80;;
55732;SDS011;41637;52.364;9.910;2022-12-07T00:31:24;23.50;;;16.40;;
55732;SDS011;41637;52.364;9.910;2022-12-07T00:33:56;26.30;;;16.90;;
55732;SDS011;41637;52.364;9.910;2022-12-07T00:36:23;24.00;;;15.90;;
55732;SDS011;41637;52.364;9.910;2022-12-07T00:38:53;25.00;;;16.50;;
55732;SDS011;41637;52.364;9.910;2022-12-07T00:41:21;24.20;;;15.90;;
55732;SDS011;41637;52.364;9.910;2022-12-07T00:43:50;25.90;;;16.90;;
55732;SDS011;41637;52.364;9.910;2022-12-07T00:46:17;27.20;;;16.30;;
55732;SDS011;41637;52.364;9.910;2022-12-07T00:48:45;24.70;;;16.50;;
55732;SDS011;41637;52.364;9.910;2022-12-07T00:51:13;25.60;;;16.40;;
55732;SDS011;41637;52.364;9.910;2022-12-07T00:53:41;26.70;;;17.50;;
55732;SDS011;41637;52.364;9.910;2022-12-07T00:56:08;24.80;;;16.10;;
55732;SDS011;41637;52.364;9.910;2022-12-07T00:58:37;27.30;;;16.90;;
55732;SDS011;41637;52.364;9.910;2022-12-07T01:01:04;24.90;;;16.10;;
55732;SDS011;41637;52.364;9.910;2022-12-07T01:03:32;24.50;;;16.40;;
55732;SDS011;41637;52.364;9.910;2022-12-07T01:05:59;25.20;;;16.50;;
55732;SDS011;41637;52.364;9.910;2022-12-07T01:08:26;23.40;;;16.10;;
55732;SDS011;41637;52.364;9.910;2022-12-07T01:11:00;23.80;;;16.00;;
55732;SDS011;41637;52.364;9.910;2022-12-07T01:13:29;25.80;;;16.60;;
55732;SDS011;41637;52.364;9.910;2022-12-07T01:15:57;25.40;;;16.10;;
55732;SDS011;41637;52.364;9.910;2022-12-07T01:18:26;24.50;;;16.50;;
55732;SDS011;41637;52.364;9.910;2022-12-07T01:20:58;25.30;;;15.70;;
55732;SDS011;41637;52.364;9.910;2022-12-07T01:23:32;22.00;;;15.80;;
55732;SDS011;41637;52.364;9.910;2022-12-07T01:26:00;22.40;;;16.10;;
55732;SDS011;41637;52.364;9.910;2022-12-07T01:28:29;23.40;;;15.80;;
55732;SDS011;41637;52.364;9.910;2022-12-07T01:30:59;24.30;;;15.80;;
55732;SDS011;41637;52.364;9.910;2022-12-07T01:33:31;22.00;;;15.50;;
55732;SDS011;41637;52.364;9.910;2022-12-07T01:36:12;22.00;;;15.50;;
55732;SDS011;41637;52.364;9.910;2022-12-07T01:38:42;22.70;;;16.00;;
55732;SDS011;41637;52.364;9.910;2022-12-07T01:41:09;20.70;;;14.30;;
55732;SDS011;41637;52.364;9.910;2022-12-07T01:43:36;21.50;;;14.90;;
55732;SDS011;41637;52.364;9.910;2022-12-07T01:46:03;21.80;;;14.90;;
55732;SDS011;41637;52.364;9.910;2022-12-07T01:48:32;23.30;;;15.70;;
55732;SDS011;41637;52.364;9.910;2022-12-07T01:51:05;19.00;;;12.80;;
55732;SDS011;41637;52.364;9.910;2022-12-07T01:53:38;19.90;;;15.00;;
55732;SDS011;41637;52.364;9.910;2022-12-07T01:56:12;19.60;;;14.10;;
55732;SDS011;41637;52.364;9.910;2022-12-07T01:58:43;20.00;;;14.70;;
55732;SDS011;41637;52.364;9.910;2022-12-07T02:01:10;19.80;;;14.50;;
55732;SDS011;41637;52.364;9.910;2022-12-07T02:03:41;20.70;;;14.90;;
55732;SDS011;41637;52.364;9.910;2022-12-07T02:06:10;22.20;;;15.30;;
55732;SDS011;41637;52.364;9.910;2022-12-07T02:08:42;20.80;;;15.20;;
55732;SDS011;41637;52.364;9.910;2022-12-07T02:11:09;21.00;;;15.40;;
55732;SDS011;41637;52.364;9.910;2022-12-07T02:13:37;19.30;;;14.70;;
55732;SDS011;41637;52.364;9.910;2022-12-07T02:32:26;19.60;;;13.20;;
55732;SDS011;41637;52.364;9.910;2022-12-07T02:35:04;17.00;;;13.10;;
55732;SDS011;41637;52.364;9.910;2022-12-07T02:43:15;18.90;;;13.50;;
55732;SDS011;41637;52.364;9.910;2022-12-07T02:45:45;18.50;;;11.80;;
55732;SDS011;41637;52.364;9.910;2022-12-07T02:48:13;20.90;;;13.50;;
55732;SDS011;41637;52.364;9.910;2022-12-07T02:50:49;19.30;;;12.90;;
55732;SDS011;41637;52.364;9.910;2022-12-07T02:53:37;16.90;;;12.40;;
55732;SDS011;41637;52.364;9.910;2022-12-07T03:10:23;18.20;;;12.70;;
55732;SDS011;41637;52.364;9.910;2022-12-07T03:18:43;17.30;;;12.20;;
55732;SDS011;41637;52.364;9.910;2022-12-07T03:21:15;18.30;;;11.60;;
55732;SDS011;41637;52.364;9.910;2022-12-07T03:23:48;15.00;;;10.40;;
55732;SDS011;41637;52.364;9.910;2022-12-07T03:26:19;15.80;;;10.10;;
55732;SDS011;41637;52.364;9.910;2022-12-07T03:28:51;14.00;;;9.90;;
55732;SDS011;41637;52.364;9.910;2022-12-07T03:31:22;14.60;;;10.30;;
55732;SDS011;41637;52.364;9.910;2022-12-07T03:33:56;14.90;;;10.20;;
55732;SDS011;41637;52.364;9.910;2022-12-07T03:36:37;16.40;;;10.70;;
55732;SDS011;41637;52.364;9.910;2022-12-07T03:42:00;14.30;;;9.90;;
55732;SDS011;41637;52.364;9.910;2022-12-07T03:44:30;15.30;;;9.90;;
55732;SDS011;41637;52.364;9.910;2022-12-07T03:49:53;11.20;;;8.40;;
55732;SDS011;41637;52.364;9.910;2022-12-07T03:52:33;13.20;;;8.90;;
55732;SDS011;41637;52.364;9.910;2022-12-07T03:57:58;11.00;;;7.50;;
55732;SDS011;41637;52.364;9.910;2022-12-07T04:00:29;11.80;;;7.70;;
55732;SDS011;41637;52.364;9.910;2022-12-07T04:02:55;13.20;;;8.00;;
55732;SDS011;41637;52.364;9.910;2022-12-07T04:05:22;12.90;;;8.00;;
55732;SDS011;41637;52.364;9.910;2022-12-07T04:07:49;12.00;;;7.40;;
55732;SDS011;41637;52.364;9.910;2022-12-07T04:10:16;12.30;;;7.80;;
55732;SDS011;41637;52.364;9.910;2022-12-07T04:12:43;11.90;;;7.50;;
55732;SDS011;41637;52.364;9.910;2022-12-07T04:15:10;12.20;;;7.60;;
55732;SDS011;41637;52.364;9.910;2022-12-07T04:17:37;12.30;;;7.70;;
55732;SDS011;41637;52.364;9.910;2022-12-07T04:20:04;12.20;;;7.50;;
55732;SDS011;41637;52.364;9.910;2022-12-07T04:22:31;10.20;;;6.60;;
55732;SDS011;41637;52.364;9.910;2022-12-07T04:24:58;12.30;;;7.40;;
55732;SDS011;41637;52.364;9.910;2022-12-07T04:27:24;14.50;;;8.70;;
55732;SDS011;41637;52.364;9.910;2022-12-07T04:29:50;11.80;;;7.60;;
55732;SDS011;41637;52.364;9.910;2022-12-07T04:32:17;15.00;;;8.30;;
55732;SDS011;41637;52.364;9.910;2022-12-07T04:34:43;14.40;;;8.20;;
55732;SDS011;41637;52.364;9.910;2022-12-07T04:37:10;12.10;;;7.90;;
55732;SDS011;41637;52.364;9.910;2022-12-07T04:39:36;13.00;;;7.90;;
55732;SDS011;41637;52.364;9.910;2022-12-07T04:42:03;12.70;;;7.70;;
55732;SDS011;41637;52.364;9.910;2022-12-07T04:44:30;14.60;;;8.30;;
55732;SDS011;41637;52.364;9.910;2022-12-07T04:46:56;13.60;;;8.30;;
55732;SDS011;41637;52.364;9.910;2022-12-07T04:49:23;11.30;;;7.60;;
55732;SDS011;41637;52.364;9.910;2022-12-07T04:51:51;15.20;;;9.30;;
55732;SDS011;41637;52.364;9.910;2022-12-07T04:54:18;14.80;;;9.10;;
55732;SDS011;41637;52.364;9.910;2022-12-07T04:56:45;13.80;;;8.90;;
55732;SDS011;41637;52.364;9.910;2022-12-07T04:59:11;14.60;;;8.40;;
55732;SDS011;41637;52.364;9.910;2022-12-07T05:01:39;13.60;;;8.60;;
55732;SDS011;41637;52.364;9.910;2022-12-07T05:04:06;15.30;;;8.60;;
55732;SDS011;41637;52.364;9.910;2022-12-07T05:06:33;12.50;;;8.50;;
55732;SDS011;41637;52.364;9.910;2022-12-07T05:09:00;12.00;;;8.40;;
55732;SDS011;41637;52.364;9.910;2022-12-07T05:11:27;14.10;;;9.00;;
55732;SDS011;41637;52.364;9.910;2022-12-07T05:14:17;13.50;;;8.60;;
55732;SDS011;41637;52.364;9.910;2022-12-07T05:16:48;13.60;;;7.90;;
55732;SDS011;41637;52.364;9.910;2022-12-07T05:19:17;14.00;;;7.80;;
55732;SDS011;41637;52.364;9.910;2022-12-07T05:21:45;13.00;;;7.20;;
55732;SDS011;41637;52.364;9.910;2022-12-07T05:24:12;13.10;;;7.90;;
55732;SDS011;41637;52.364;9.910;2022-12-07T05:26:40;17.80;;;8.50;;
55732;SDS011;41637;52.364;9.910;2022-12-07T05:29:07;13.00;;;8.30;;
55732;SDS011;41637;52.364;9.910;2022-12-07T05:31:33;12.70;;;7.40;;
55732;SDS011;41637;52.364;9.910;2022-12-07T05:34:00;14.90;;;7.00;;
55732;SDS011;41637;52.364;9.910;2022-12-07T05:36:27;13.80;;;8.40;;
55732;SDS011;41637;52.364;9.910;2022-12-07T05:38:54;13.40;;;7.50;;
55732;SDS011;41637;52.364;9.910;2022-12-07T05:41:21;12.50;;;7.40;;
55732;SDS011;41637;52.364;9.910;2022-12-07T05:44:06;13.30;;;7.10;;
55732;SDS011;41637;52.364;9.910;2022-12-07T05:46:33;12.10;;;7.40;;
55732;SDS011;41637;52.364;9.910;2022-12-07T05:49:00;11.10;;;6.60;;
55732;SDS011;41637;52.364;9.910;2022-12-07T05:51:27;15.30;;;8.00;;
55732;SDS011;41637;52.364;9.910;2022-12-07T05:53:53;15.10;;;8.10;;
55732;SDS011;41637;52.364;9.910;2022-12-07T05:56:20;13.90;;;7.70;;
55732;SDS011;41637;52.364;9.910;2022-12-07T05:58:46;12.10;;;7.10;;
55732;SDS011;41637;52.364;9.910;2022-12-07T06:01:32;12.40;;;7.50;;
55732;SDS011;41637;52.364;9.910;2022-12-07T06:03:58;13.70;;;7.40;;
55732;SDS011;41637;52.364;9.910;2022-12-07T06:06:24;13.90;;;7.50;;
55732;SDS011;41637;52.364;9.910;2022-12-07T06:08:51;10.40;;;6.90;;
55732;SDS011;41637;52.364;9.910;2022-12-07T06:11:17;13.90;;;7.70;;
55732;SDS011;41637;52.364;9.910;2022-12-07T06:14:03;13.80;;;7.10;;
55732;SDS011;41637;52.364;9.910;2022-12-07T06:16:29;14.30;;;7.20;;
55732;SDS011;41637;52.364;9.910;2022-12-07T06:18:56;13.70;;;7.60;;
55732;SDS011;41637;52.364;9.910;2022-12-07T06:21:22;13.00;;;7.00;;
55732;SDS011;41637;52.364;9.910;2022-12-07T06:23:49;14.60;;;7.90;;
55732;SDS011;41637;52.364;9.910;2022-12-07T06:26:15;13.70;;;7.30;;
55732;SDS011;41637;52.364;9.910;2022-12-07T06:28:42;13.10;;;7.80;;
55732;SDS011;41637;52.364;9.910;2022-12-07T06:31:08;12.50;;;6.90;;
55732;SDS011;41637;52.364;9.910;2022-12-07T06:33:39;13.70;;;7.40;;
55732;SDS011;41637;52.364;9.910;2022-12-07T06:36:06;12.80;;;7.80;;
55732;SDS011;41637;52.364;9.910;2022-12-07T06:38:33;11.80;;;6.40;;
55732;SDS011;41637;52.364;9.910;2022-12-07T06:40:59;11.10;;;6.70;;
55732;SDS011;41637;52.364;9.910;2022-12-07T06:43:26;11.60;;;6.80;;
55732;SDS011;41637;52.364;9.910;2022-12-07T06:45:53;10.70;;;5.70;;
55732;SDS011;41637;52.364;9.910;2022-12-07T06:48:20;11.60;;;6.00;;
55732;SDS011;41637;52.364;9.910;2022-12-07T06:50:46;10.20;;;6.30;;
55732;SDS011;41637;52.364;9.910;2022-12-07T06:53:20;12.20;;;5.50;;
55732;SDS011;41637;52.364;9.910;2022-12-07T06:55:46;8.50;;;4.80;;
55732;SDS011;41637;52.364;9.910;2022-12-07T06:58:13;9.30;;;4.40;;
55732;SDS011;41637;52.364;9.910;2022-12-07T07:00:39;8.60;;;4.80;;
55732;SDS011;41637;52.364;9.910;2022-12-07T07:03:05;10.20;;;4.70;;
55732;SDS011;41637;52.364;9.910;2022-12-07T07:05:32;10.80;;;4.90;;
55732;SDS011;41637;52.364;9.910;2022-12-07T07:07:58;6.90;;;3.90;;
55732;SDS011;41637;52.364;9.910;2022-12-07T07:10:45;8.30;;;3.70;;
55732;SDS011;41637;52.364;9.910;2022-12-07T07:13:11;7.10;;;4.00;;
55732;SDS011;41637;52.364;9.910;2022-12-07T07:15:38;8.60;;;3.90;;
55732;SDS011;41637;52.364;9.910;2022-12-07T07:18:05;9.30;;;3.80;;
55732;SDS011;41637;52.364;9.910;2022-12-07T07:20:33;7.50;;;3.60;;
55732;SDS011;41637;52.364;9.910;2022-12-07T07:22:59;8.20;;;4.00;;
55732;SDS011;41637;52.364;9.910;2022-12-07T07:25:26;6.80;;;3.80;;
55732;SDS011;41637;52.364;9.910;2022-12-07T07:27:52;7.20;;;3.40;;
55732;SDS011;41637;52.364;9.910;2022-12-07T07:30:19;7.60;;;3.60;;
55732;SDS011;41637;52.364;9.910;2022-12-07T07:32:45;8.60;;;3.60;;
55732;SDS011;41637;52.364;9.910;2022-12-07T07:35:12;8.50;;;3.20;;
55732;SDS011;41637;52.364;9.910;2022-12-07T07:37:40;9.60;;;3.40;;
55732;SDS011;41637;52.364;9.910;2022-12-07T07:40:07;8.00;;;3.70;;
55732;SDS011;41637;52.364;9.910;2022-12-07T07:42:35;9.00;;;3.60;;
55732;SDS011;41637;52.364;9.910;2022-12-07T07:45:02;9.30;;;3.40;;
55732;SDS011;41637;52.364;9.910;2022-12-07T07:47:29;7.00;;;3.10;;
55732;SDS011;41637;52.364;9.910;2022-12-07T07:49:55;7.20;;;3.00;;
55732;SDS011;41637;52.364;9.910;2022-12-07T07:52:23;9.90;;;3.70;;
55732;SDS011;41637;52.364;9.910;2022-12-07T07:54:49;6.60;;;3.30;;
55732;SDS011;41637;52.364;9.910;2022-12-07T07:57:16;11.90;;;3.40;;
55732;SDS011;41637;52.364;9.910;2022-12-07T07:59:43;7.00;;;3.30;;
55732;SDS011;41637;52.364;9.910;2022-12-07T08:02:13;5.90;;;2.80;;
55732;SDS011;41637;52.364;9.910;2022-12-07T08:04:45;5.50;;;2.40;;
55732;SDS011;41637;52.364;9.910;2022-12-07T08:07:12;7.60;;;2.70;;
55732;SDS011;41637;52.364;9.910;2022-12-07T08:09:40;5.00;;;2.10;;
55732;SDS011;41637;52.364;9.910;2022-12-07T08:12:07;8.30;;;2.60;;
55732;SDS011;41637;52.364;9.910;2022-12-07T08:14:34;5.70;;;2.30;;
55732;SDS011;41637;52.364;9.910;2022-12-07T08:17:01;8.20;;;2.40;;
55732;SDS011;41637;52.364;9.910;2022-12-07T08:19:27;6.70;;;2.40;;
55732;SDS011;41637;52.364;9.910;2022-12-07T08:21:54;5.90;;;2.40;;
55732;SDS011;41637;52.364;9.910;2022-12-07T08:24:22;8.50;;;3.10;;
55732;SDS011;41637;52.364;9.910;2022-12-07T08:26:49;4.70;;;2.00;;
55732;SDS011;41637;52.364;9.910;2022-12-07T08:29:16;7.40;;;2.20;;
55732;SDS011;41637;52.364;9.910;2022-12-07T08:31:43;6.10;;;2.40;;
55732;SDS011;41637;52.364;9.910;2022-12-07T08:34:10;4.90;;;1.70;;
55732;SDS011;41637;52.364;9.910;2022-12-07T08:36:37;4.10;;;1.80;;
55732;SDS011;41637;52.364;9.910;2022-12-07T08:39:04;4.80;;;1.90;;
55732;SDS011;41637;52.364;9.910;2022-12-07T08:41:50;4.70;;;2.00;;
55732;SDS011;41637;52.364;9.910;2022-12-07T08:44:17;6.80;;;2.00;;
55732;SDS011;41637;52.364;9.910;2022-12-07T08:46:47;6.50;;;2.00;;
55732;SDS011;41637;52.364;9.910;2022-12-07T08:49:33;5.90;;;1.90;;
55732;SDS011;41637;52.364;9.910;2022-12-07T08:52:04;4.70;;;1.80;;
55732;SDS011;41637;52.364;9.910;2022-12-07T08:54:31;4.30;;;1.80;;
55732;SDS011;41637;52.364;9.910;2022-12-07T08:57:00;5.40;;;1.80;;
55732;SDS011;41637;52.364;9.910;2022-12-07T08:59:26;4.40;;;1.90;;
55732;SDS011;41637;52.364;9.910;2022-12-07T09:01:54;4.90;;;1.80;;
55732;SDS011;41637;52.364;9.910;2022-12-07T09:04:21;4.40;;;1.70;;
55732;SDS011;41637;52.364;9.910;2022-12-07T09:06:47;5.80;;;1.70;;
55732;SDS011;41637;52.364;9.910;2022-12-07T09:09:14;6.30;;;1.90;;
55732;SDS011;41637;52.364;9.910;2022-12-07T09:11:41;6.40;;;1.80;;
55732;SDS011;41637;52.364;9.910;2022-12-07T09:14:08;6.90;;;2.00;;
55732;SDS011;41637;52.364;9.910;2022-12-07T09:16:34;5.00;;;1.70;;
55732;SDS011;41637;52.364;9.910;2022-12-07T09:19:01;6.10;;;1.90;;
55732;SDS011;41637;52.364;9.910;2022-12-07T09:21:27;4.90;;;1.90;;
55732;SDS011;41637;52.364;9.910;2022-12-07T09:23:54;6.40;;;1.70;;
55732;SDS011;41637;52.364;9.910;2022-12-07T09:26:20;5.60;;;1.70;;
55732;SDS011;41637;52.364;9.910;2022-12-07T09:28:47;5.20;;;1.40;;
55732;SDS011;41637;52.364;9.910;2022-12-07T09:31:13;5.60;;;1.40;;
55732;SDS011;41637;52.364;9.910;2022-12-07T09:33:57;4.90;;;1.60;;
55732;SDS011;41637;52.364;9.910;2022-12-07T09:36:25;6.40;;;1.60;;
55732;SDS011;41637;52.364;9.910;2022-12-07T09:38:53;4.00;;;1.30;;
55732;SDS011;41637;52.364;9.910;2022-12-07T09:41:19;4.40;;;1.30;;
55732;SDS011;41637;52.364;9.910;2022-12-07T09:43:49;2.80;;;1.00;;
55732;SDS011;41637;52.364;9.910;2022-12-07T09:46:16;4.90;;;1.40;;
55732;SDS011;41637;52.364;9.910;2022-12-07T09:48:46;2.80;;;1.10;;
55732;SDS011;41637;52.364;9.910;2022-12-07T09:51:17;3.60;;;1.10;;
55732;SDS011;41637;52.364;9.910;2022-12-07T09:53:51;5.50;;;1.00;;
55732;SDS011;41637;52.364;9.910;2022-12-07T09:56:19;3.60;;;1.30;;
55732;SDS011;41637;52.364;9.910;2022-12-07T09:58:48;4.80;;;1.20;;
55732;SDS011;41637;52.364;9.910;2022-12-07T10:01:20;3.50;;;1.10;;
55732;SDS011;41637;52.364;9.910;2022-12-07T10:06:43;5.80;;;1.10;;
55732;SDS011;41637;52.364;9.910;2022-12-07T10:09:13;4.30;;;1.00;;
55732;SDS011;41637;52.364;9.910;2022-12-07T10:12:02;4.50;;;1.40;;
55732;SDS011;41637;52.364;9.910;2022-12-07T10:14:32;5.60;;;1.40;;
55732;SDS011;41637;52.364;9.910;2022-12-07T10:17:29;5.10;;;1.20;;
55732;SDS011;41637;52.364;9.910;2022-12-07T10:20:21;5.00;;;1.20;;
55732;SDS011;41637;52.364;9.910;2022-12-07T10:25:28;3.00;;;1.00;;
55732;SDS011;41637;52.364;9.910;2022-12-07T10:28:16;2.50;;;0.80;;
55732;SDS011;41637;52.364;9.910;2022-12-07T10:30:49;2.60;;;0.60;;
55732;SDS011;41637;52.364;9.910;2022-12-07T10:36:17;3.40;;;0.90;;
55732;SDS011;41637;52.364;9.910;2022-12-07T10:39:20;3.80;;;1.00;;
55732;SDS011;41637;52.364;9.910;2022-12-07T10:42:00;3.70;;;1.10;;
55732;SDS011;41637;52.364;9.910;2022-12-07T10:44:32;3.40;;;0.70;;
55732;SDS011;41637;52.364;9.910;2022-12-07T10:50:08;3.60;;;1.20;;
55732;SDS011;41637;52.364;9.910;2022-12-07T11:10:00;7.00;;;1.40;;
55732;SDS011;41637;52.364;9.910;2022-12-07T11:12:57;3.90;;;1.00;;
55732;SDS011;41637;52.364;9.910;2022-12-07T11:15:37;3.70;;;1.10;;
55732;SDS011;41637;52.364;9.910;2022-12-07T11:18:24;4.50;;;1.10;;
55732;SDS011;41637;52.364;9.910;2022-12-07T11:21:33;4.90;;;1.00;;
55732;SDS011;41637;52.364;9.910;2022-12-07T11:24:03;4.30;;;1.10;;
55732;SDS011;41637;52.364;9.910;2022-12-07T11:37:55;2.60;;;0.70;;
55732;SDS011;41637;52.364;9.910;2022-12-07T11:40:33;4.00;;;1.20;;
55732;SDS011;41637;52.364;9.910;2022-12-07T11:46:04;2.90;;;0.70;;
55732;SDS011;41637;52.364;9.910;2022-12-07T11:48:38;3.00;;;0.50;;
55732;SDS011;41637;52.364;9.910;2022-12-07T11:51:07;4.10;;;0.50;;
55732;SDS011;41637;52.364;9.910;2022-12-07T11:56:16;2.50;;;1.30;;
55732;SDS011;41637;52.364;9.910;2022-12-07T12:06:35;2.50;;;0.70;;
55732;SDS011;41637;52.364;9.910;2022-12-07T12:15:16;3.80;;;0.90;;
55732;SDS011;41637;52.364;9.910;2022-12-07T12:20:29;3.90;;;1.10;;
55732;SDS011;41637;52.364;9.910;2022-12-07T12:25:48;3.70;;;1.10;;
55732;SDS011;41637;52.364;9.910;2022-12-07T12:28:20;5.00;;;1.10;;
55732;SDS011;41637;52.364;9.910;2022-12-07T12:33:42;6.10;;;1.10;;
55732;SDS011;41637;52.364;9.910;2022-12-07T12:36:24;3.80;;;1.10;;
55732;SDS011;41637;52.364;9.910;2022-12-07T12:46:52;5.70;;;1.00;;
55732;SDS011;41637;52.364;9.910;2022-12-07T13:05:14;6.20;;;1.50;;
55732;SDS011;41637;52.364;9.910;2022-12-07T13:13:03;7.70;;;1.80;;
55732;SDS011;41637;52.364;9.910;2022-12-07T13:26:23;4.80;;;1.40;;
55732;SDS011;41637;52.364;9.910;2022-12-07T13:31:57;6.40;;;1.20;;
55732;SDS011;41637;52.364;9.910;2022-12-07T13:34:40;6.90;;;1.50;;
55732;SDS011;41637;52.364;9.910;2022-12-07T13:37:15;5.80;;;1.50;;
55732;SDS011;41637;52.364;9.910;2022-12-07T13:39:45;9.70;;;1.80;;
55732;SDS011;41637;52.364;9.910;2022-12-07T13:44:53;8.20;;;1.80;;
55732;SDS011;41637;52.364;9.910;2022-12-07T13:47:23;3.90;;;1.30;;
55732;SDS011;41637;52.364;9.910;2022-12-07T13:49:55;5.60;;;1.40;;
55732;SDS011;41637;52.364;9.910;2022-12-07T13:54:54;6.30;;;1.50;;
55732;SDS011;41637;52.364;9.910;2022-12-07T13:57:28;5.90;;;1.70;;
55732;SDS011;41637;52.364;9.910;2022-12-07T14:00:01;5.60;;;1.30;;
55732;SDS011;41637;52.364;9.910;2022-12-07T14:02:34;4.60;;;1.30;;
55732;SDS011;41637;52.364;9.910;2022-12-07T14:07:55;5.20;;;1.50;;
55732;SDS011;41637;52.364;9.910;2022-12-07T14:10:29;4.30;;;1.30;;
55732;SDS011;41637;52.364;9.910;2022-12-07T14:15:51;5.50;;;1.40;;
55732;SDS011;41637;52.364;9.910;2022-12-07T14:18:25;5.90;;;1.40;;
55732;SDS011;41637;52.364;9.910;2022-12-07T14:23:37;5.00;;;1.10;;
55732;SDS011;41637;52.364;9.910;2022-12-07T14:26:06;7.80;;;1.50;;
55732;SDS011;41637;52.364;9.910;2022-12-07T14:28:35;7.00;;;1.60;;
55732;SDS011;41637;52.364;9.910;2022-12-07T14:31:13;4.60;;;1.30;;
55732;SDS011;41637;52.364;9.910;2022-12-07T14:33:50;5.90;;;1.30;;
55732;SDS011;41637;52.364;9.910;2022-12-07T14:36:16;4.60;;;1.40;;
55732;SDS011;41637;52.364;9.910;2022-12-07T14:38:43;7.00;;;1.60;;
55732;SDS011;41637;52.364;9.910;2022-12-07T14:41:13;7.50;;;1.30;;
55732;SDS011;41637;52.364;9.910;2022-12-07T14:44:12;5.60;;;1.60;;
55732;SDS011;41637;52.364;9.910;2022-12-07T14:46:58;6.00;;;1.50;;
55732;SDS011;41637;52.364;9.910;2022-12-07T14:49:45;6.10;;;1.50;;
55732;SDS011;41637;52.364;9.910;2022-12-07T14:52:22;5.80;;;1.40;;
55732;SDS011;41637;52.364;9.910;2022-12-07T14:55:34;5.90;;;1.30;;
55732;SDS011;41637;52.364;9.910;2022-12-07T14:57:59;5.50;;;1.10;;
55732;SDS011;41637;52.364;9.910;2022-12-07T15:00:27;5.80;;;1.30;;
55732;SDS011;41637;52.364;9.910;2022-12-07T15:02:54;5.00;;;1.20;;
55732;SDS011;41637;52.364;9.910;2022-12-07T15:05:21;4.20;;;1.30;;
55732;SDS011;41637;52.364;9.910;2022-12-07T15:07:48;6.80;;;1.40;;
55732;SDS011;41637;52.364;9.910;2022-12-07T15:10:17;4.60;;;1.10;;
55732;SDS011;41637;52.364;9.910;2022-12-07T15:12:59;6.30;;;1.40;;
55732;SDS011;41637;52.364;9.910;2022-12-07T15:15:48;5.00;;;1.80;;
55732;SDS011;41637;52.364;9.910;2022-12-07T15:18:17;6.60;;;1.60;;
55732;SDS011;41637;52.364;9.910;2022-12-07T15:20:45;5.40;;;1.10;;
55732;SDS011;41637;52.364;9.910;2022-12-07T15:23:12;5.00;;;1.40;;
55732;SDS011;41637;52.364;9.910;2022-12-07T15:25:43;7.00;;;1.50;;
55732;SDS011;41637;52.364;9.910;2022-12-07T15:28:11;6.60;;;2.00;;
55732;SDS011;41637;52.364;9.910;2022-12-07T15:30:38;5.40;;;1.70;;
55732;SDS011;41637;52.364;9.910;2022-12-07T15:33:06;5.10;;;1.60;;
55732;SDS011;41637;52.364;9.910;2022-12-07T15:35:32;5.20;;;1.50;;
55732;SDS011;41637;52.364;9.910;2022-12-07T15:37:59;8.00;;;1.90;;
55732;SDS011;41637;52.364;9.910;2022-12-07T15:40:25;5.70;;;1.50;;
55732;SDS011;41637;52.364;9.910;2022-12-07T15:42:52;3.80;;;1.50;;
55732;SDS011;41637;52.364;9.910;2022-12-07T15:45:18;5.30;;;2.20;;
55732;SDS011;41637;52.364;9.910;2022-12-07T15:47:44;6.70;;;2.10;;
55732;SDS011;41637;52.364;9.910;2022-12-07T15:50:31;5.10;;;1.80;;
55732;SDS011;41637;52.364;9.910;2022-12-07T15:52:57;7.00;;;2.00;;
55732;SDS011;41637;52.364;9.910;2022-12-07T15:55:24;9.60;;;1.80;;
55732;SDS011;41637;52.364;9.910;2022-12-07T15:57:50;7.00;;;1.90;;
55732;SDS011;41637;52.364;9.910;2022-12-07T16:00:17;6.40;;;1.80;;
55732;SDS011;41637;52.364;9.910;2022-12-07T16:02:44;5.10;;;1.60;;
55732;SDS011;41637;52.364;9.910;2022-12-07T16:05:10;5.50;;;1.60;;
55732;SDS011;41637;52.364;9.910;2022-12-07T16:07:36;9.50;;;2.10;;
55732;SDS011;41637;52.364;9.910;2022-12-07T16:10:03;7.10;;;2.00;;
55732;SDS011;41637;52.364;9.910;2022-12-07T16:12:30;5.50;;;1.70;;
55732;SDS011;41637;52.364;9.910;2022-12-07T16:14:57;5.70;;;1.70;;
55732;SDS011;41637;52.364;9.910;2022-12-07T16:17:23;7.10;;;2.00;;
55732;SDS011;41637;52.364;9.910;2022-12-07T16:19:49;6.90;;;2.00;;
55732;SDS011;41637;52.364;9.910;2022-12-07T16:22:16;6.50;;;2.10;;
55732;SDS011;41637;52.364;9.910;2022-12-07T16:24:42;8.50;;;2.10;;
55732;SDS011;41637;52.364;9.910;2022-12-07T16:27:09;5.60;;;2.10;;
55732;SDS011;41637;52.364;9.910;2022-12-07T16:29:36;7.20;;;2.80;;
55732;SDS011;41637;52.364;9.910;2022-12-07T16:32:02;4.30;;;1.90;;
55732;SDS011;41637;52.364;9.910;2022-12-07T16:34:29;7.70;;;2.40;;
55732;SDS011;41637;52.364;9.910;2022-12-07T16:36:55;11.30;;;4.20;;
55732;SDS011;41637;52.364;9.910;2022-12-07T16:39:31;10.10;;;3.30;;
55732;SDS011;41637;52.364;9.910;2022-12-07T16:41:58;8.40;;;3.10;;
55732;SDS011;41637;52.364;9.910;2022-12-07T16:44:25;8.60;;;3.00;;
55732;SDS011;41637;52.364;9.910;2022-12-07T16:46:51;8.00;;;3.10;;
55732;SDS011;41637;52.364;9.910;2022-12-07T16:49:18;6.80;;;3.40;;
55732;SDS011;41637;52.364;9.910;2022-12-07T16:51:45;4.40;;;2.80;;
55732;SDS011;41637;52.364;9.910;2022-12-07T16:54:13;6.50;;;2.60;;
55732;SDS011;41637;52.364;9.910;2022-12-07T16:56:40;8.50;;;2.60;;
55732;SDS011;41637;52.364;9.910;2022-12-07T16:59:07;7.20;;;2.80;;
55732;SDS011;41637;52.364;9.910;2022-12-07T17:01:34;8.50;;;3.00;;
55732;SDS011;41637;52.364;9.910;2022-12-07T17:04:02;7.40;;;3.00;;
55732;SDS011;41637;52.364;9.910;2022-12-07T17:06:30;9.70;;;2.90;;
55732;SDS011;41637;52.364;9.910;2022-12-07T17:08:57;8.10;;;3.10;;
55732;SDS011;41637;52.364;9.910;2022-12-07T17:11:28;8.90;;;3.60;;
55732;SDS011;41637;52.364;9.910;2022-12-07T17:13:58;6.20;;;2.70;;
55732;SDS011;41637;52.364;9.910;2022-12-07T17:16:44;9.40;;;3.40;;
55732;SDS011;41637;52.364;9.910;2022-12-07T17:19:11;7.10;;;3.20;;
55732;SDS011;41637;52.364;9.910;2022-12-07T17:21:39;5.60;;;3.50;;
55732;SDS011;41637;52.364;9.910;2022-12-07T17:24:07;9.60;;;3.50;;
55732;SDS011;41637;52.364;9.910;2022-12-07T17:26:36;10.50;;;4.30;;
55732;SDS011;41637;52.364;9.910;2022-12-07T17:29:03;9.70;;;4.10;;
55732;SDS011;41637;52.364;9.910;2022-12-07T17:31:32;9.40;;;4.00;;
55732;SDS011;41637;52.364;9.910;2022-12-07T17:33:59;10.10;;;3.90;;
55732;SDS011;41637;52.364;9.910;2022-12-07T17:36:26;6.60;;;2.80;;
55732;SDS011;41637;52.364;9.910;2022-12-07T17:38:55;4.00;;;1.40;;
55732;SDS011;41637;52.364;9.910;2022-12-07T17:41:24;4.00;;;1.30;;
55732;SDS011;41637;52.364;9.910;2022-12-07T17:44:13;4.50;;;1.70;;
55732;SDS011;41637;52.364;9.910;2022-12-07T17:46:42;4.00;;;1.70;;
55732;SDS011;41637;52.364;9.910;2022-12-07T17:49:12;4.00;;;1.40;;
55732;SDS011;41637;52.364;9.910;2022-12-07T17:51:39;2.90;;;1.20;;
55732;SDS011;41637;52.364;9.910;2022-12-07T17:54:24;5.40;;;1.90;;